Wetterstation Holzhau
Aktuelle Wetterinformationen aus dem Erzgebirge
Bei Facebook empfehlen Bei Twitter posten Google plus Pinterest
Holzhau Holzhau Holzhau Holzhau

Das Wetter im Erzgebirge am (27.07.2016)

Hier finden Sie die Tabelle der Wetter-Daten von heute (27.07.2016):
Wetter und Klima am 27.07.2016 Holzhau im Erzgebirge (630m ü.NN)
Letzte gemessene Temperatur und Uhrzeit der Messung16:00:00 Uhr19.10 °C
Temperatur (Maximum / Höchstwert) und Uhrzeit der Messung13:30:00 Uhr26.60 °C
Temperatur (Minimum / Tiefstwert) und Uhrzeit der Messung06:15:0015.50 °C
Errechneter Absolutwert der Temperaturschwankungen zwischen Tmin und Tmax des Tages11.10 K
Errechnete Tagesmitteltemperatur18.54923 °C
Gesamt - Niederschlag des Tages (in flüssiger Form)5.70 Liter / m²
Luftdruck (Maximum / Höchstwert) und Zeitpunkt der Messung00:30:00 Uhr1017.90 hPa
Luftdruck (Minimum / Tiefstwert) und Zeitpunkt der Messung16:00:00 Uhr1013.40 hPa
Errechneter Absolutwert der Luftdruckschwankungen des Tages4.50 hPa
Höchste gemessene Windgeschwindigkeit und Uhrzeit der Messung16:00:00 Uhr0.00 km/h
Errechnete Windhäufigkeit in Relation zu den Messwerten des Tages0.00000 %
Niedrigste Windkühle (Windchill) und Zeitpunkt der Messung06:15:00 Uhr15.50 °C
Taupunkt (Maximum / Höchstwert) und Uhrzeit der Messung12:30:00 Uhr21.60 °C
Taupunkt (Minimum / Tiefstwert) und Uhrzeit der Messung05:15:0014.60 °C
Anzahl der automatisch eingelesenen Messwerte 65

Detaillierte Wetter- und Klima- Messwerte für den 27.07.2016 in Holzhau im Erzgebirge (630m ü.NN)
ZeitTemperaturLuftdruckRel. LuftfeuchteWindWindrichtungWindchillTaupunktNiederschlag l/m²
16:00:0019.10 °C1013.40 hPa89.00 %17.20 °C5.70
15:45:0019.10 °C1013.60 hPa88.00 %17.10 °C5.18
15:30:0019.20 °C1013.90 hPa84.00 %16.40 °C4.67
15:15:0019.80 °C1014.80 hPa82.00 %16.60 °C3.63
15:00:0020.60 °C1015.30 hPa80.00 %17.00 °C2.59
14:45:0021.40 °C1015.00 hPa77.00 %17.20 °C2.59
14:30:0022.70 °C1015.20 hPa74.00 %17.80 °C2.59
14:15:0023.80 °C1015.10 hPa71.00 %18.20 °C2.59
14:00:0025.20 °C1015.20 hPa68.00 %18.90 °C2.59
13:45:0026.20 °C1015.00 hPa66.00 %19.30 °C2.59
13:30:0026.60 °C1014.90 hPa68.00 %20.20 °C2.59
13:15:0025.60 °C1015.20 hPa73.00 %20.40 °C2.59
13:00:0024.90 °C1015.00 hPa75.00 %20.20 °C2.59
12:45:0024.60 °C1015.20 hPa80.00 %20.90 °C2.59
12:30:0024.30 °C1015.30 hPa85.00 %21.60 °C2.59
12:15:0022.70 °C1016.00 hPa89.00 %20.80 °C2.59
12:00:0021.90 °C1016.20 hPa91.00 %20.40 °C2.59
11:45:0021.10 °C1016.60 hPa93.00 %19.90 °C2.59
11:30:0020.10 °C1016.50 hPa94.00 %19.10 °C2.59
11:15:0019.10 °C1016.60 hPa94.00 %18.10 °C2.59
11:00:0018.40 °C1016.60 hPa93.00 %17.20 °C2.59
10:45:0018.10 °C1016.70 hPa93.00 %17.00 °C2.59
10:30:0018.10 °C1016.80 hPa92.00 %16.80 °C2.08
10:15:0018.50 °C1016.80 hPa92.00 %17.20 °C2.08
10:00:0019.80 °C1016.80 hPa93.00 %18.60 °C1.56
09:45:0020.10 °C1016.60 hPa94.00 %19.10 °C1.56
09:30:0019.60 °C1016.50 hPa94.00 %18.60 °C1.56
09:15:0019.50 °C1016.40 hPa95.00 %18.70 °C1.56
09:00:0019.10 °C1016.20 hPa95.00 %18.30 °C1.56
08:45:0018.40 °C1016.20 hPa95.00 %17.60 °C1.56
08:30:0017.90 °C1016.30 hPa95.00 %17.10 °C1.56
08:15:0017.60 °C1016.40 hPa95.00 %16.80 °C1.56
08:00:0017.50 °C1016.10 hPa96.00 %16.90 °C1.56
07:45:0017.00 °C1016.10 hPa95.00 %16.20 °C1.56
07:30:0016.60 °C1015.80 hPa95.00 %15.80 °C1.56
07:15:0016.30 °C1015.70 hPa95.00 %15.50 °C1.56
07:00:0016.00 °C1015.50 hPa95.00 %15.20 °C1.56
06:45:0015.80 °C1015.70 hPa95.00 %15.00 °C1.56
06:30:0015.60 °C1015.70 hPa95.00 %14.80 °C1.56
06:15:0015.50 °C1015.80 hPa95.00 %14.70 °C1.56
06:00:0015.50 °C1015.70 hPa95.00 %14.70 °C1.56
05:45:0015.60 °C1016.00 hPa95.00 %14.80 °C1.56
05:30:0015.60 °C1015.90 hPa95.00 %14.80 °C1.56
05:15:0015.60 °C1015.80 hPa94.00 %14.60 °C 
05:00:0015.60 °C1016.10 hPa94.00 %14.60 °C 
04:45:0015.80 °C1016.20 hPa94.00 %14.80 °C 
04:30:0015.80 °C1016.30 hPa94.00 %14.80 °C 
04:15:0015.90 °C1016.30 hPa94.00 %14.90 °C 
04:00:0015.90 °C1016.60 hPa94.00 %14.90 °C 
03:45:0015.90 °C1016.50 hPa94.00 %14.90 °C 
03:30:0015.90 °C1016.70 hPa94.00 %14.90 °C 
03:15:0016.10 °C1016.90 hPa94.00 %15.10 °C 
03:00:0016.20 °C1017.00 hPa94.00 %15.20 °C 
02:45:0016.20 °C1017.00 hPa93.00 %15.10 °C 
02:30:0016.20 °C1017.20 hPa93.00 %15.10 °C 
02:15:0016.30 °C1017.20 hPa93.00 %15.20 °C 
02:00:0016.30 °C1017.30 hPa93.00 %15.20 °C 
01:45:0016.40 °C1017.40 hPa93.00 %15.30 °C 
01:30:0016.40 °C1017.40 hPa93.00 %15.30 °C 
01:15:0016.40 °C1017.70 hPa92.00 %15.10 °C 
01:00:0016.40 °C1017.80 hPa92.00 %15.10 °C 
00:45:0016.40 °C1017.70 hPa92.00 %15.10 °C 
00:30:0016.50 °C1017.90 hPa91.00 %15.00 °C 
00:15:0016.60 °C1017.90 hPa91.00 %15.10 °C 
00:00:0016.80 °C1017.90 hPa91.00 %15.30 °C 

Permanenter Link zu dieser Seite: Wetter im Erzgebirge am 27.07.2016
Performance-Info: Die Erstellung der Seite / Statistik(en) / Tabelle(n) erforderte 3 Datenbankserver-Abfrage(n) und dauerte 66 Millisekunden. (Dieser Messwert ist von der Gesamt-Auslastung des Servers abhängig.)

Aktuelle Informationen aus dem Erzgebirge

Bergsicherungsmaßnahmen in Bienenmühle beendet - B171 wieder frei
Mittelsächsisches Theater - Spielplan Juni 2016
Einladung zur Diskussionsveranstaltung "Die Wahrnehmung der Presse in der Öffentlichkeit"
Geführte Kräuterwanderungen auf dem Kräuterweg Rechenberg - Holzhau 2016
Sachsens Schmalspurbahnen laden zum Himmelfahrtsausflug ein
Tage des Historischen Handwerks im Freilichtmuseum Seiffen - 6. und 7. Mai 2016
Freiberger Eisenbahn bietet Zusatzfahrten auf der Strecke Freiberg - Holzhau - Freiberg am Himmelfahrtstag an
Bergbaumuseum Altenberg mit zusätzlichen Öffnungszeiten am Himmelfahrts-Brückentag
"Hatten Sie eine angenehme Anreise?" - Baustellen rund um Holzhau bringen Touristen und Berufspendler zur Verzweiflung
Schienenersatzverkehr der Freiberger Eisenbahn
Achtung Wanderer! Tschechien führt Reflektorenpflicht für Fußgänger und Wanderer ein
"Damit die Bahn nicht aufs Abstellgleis fährt" - Beratung zur Bahnstrecke Freiberg - Holzhau
MdB Veronika Bellmann (CDU) - Gastkommentar "Wer ist hier rechts?"
Zuschauerquote von "Musik auf dem Lande" aus Holzhau (MDR)
MDR: Großes Geheimnis um Einschaltquoten von "Musik auf dem Lande" aus Holzhau?